createdAt,value
2017-10-26T00:00:28.296Z,57.30
2017-10-26T00:01:28.293Z,56.50
2017-10-26T00:02:28.292Z,60.60
2017-10-26T00:03:28.291Z,67.90
2017-10-26T00:04:28.288Z,63.40
2017-10-26T00:05:28.284Z,59.30
2017-10-26T00:06:28.284Z,55.10
2017-10-26T00:07:28.282Z,59.70
2017-10-26T00:08:28.277Z,60.70
2017-10-26T00:09:28.274Z,56.80
2017-10-26T00:10:28.271Z,60.50
2017-10-26T00:11:28.266Z,57.90
2017-10-26T00:12:28.261Z,57.90
2017-10-26T00:13:28.258Z,57.50
2017-10-26T00:14:28.260Z,55.50
2017-10-26T00:15:28.256Z,53.30
2017-10-26T00:16:28.250Z,57.70
2017-10-26T00:17:28.246Z,56.30
2017-10-26T00:18:28.245Z,60.50
2017-10-26T00:19:28.245Z,58.50
2017-10-26T00:20:28.243Z,60.90
2017-10-26T00:21:28.240Z,53.00
2017-10-26T00:22:28.238Z,52.60
2017-10-26T00:23:28.235Z,62.00
2017-10-26T00:24:28.232Z,62.60
2017-10-26T00:25:28.227Z,60.40
2017-10-26T00:26:28.226Z,58.00
2017-10-26T00:27:28.219Z,62.90
2017-10-26T00:28:28.216Z,58.60
2017-10-26T00:29:28.214Z,60.80
2017-10-26T00:30:28.210Z,61.20
2017-10-26T00:31:28.208Z,60.80
2017-10-26T00:32:28.205Z,64.40
2017-10-26T00:33:28.202Z,56.90
2017-10-26T00:34:28.200Z,56.40
2017-10-26T00:35:28.202Z,58.30
2017-10-26T00:36:28.196Z,58.50
2017-10-26T00:37:28.194Z,53.70
2017-10-26T00:38:28.191Z,60.20
2017-10-26T00:39:28.188Z,59.00
2017-10-26T00:40:28.186Z,55.20
2017-10-26T00:41:28.182Z,61.60
2017-10-26T00:42:28.179Z,56.30
2017-10-26T00:43:28.174Z,55.00
2017-10-26T00:44:28.171Z,59.20
2017-10-26T00:45:28.174Z,56.40
2017-10-26T00:46:28.165Z,55.80
2017-10-26T00:47:28.162Z,57.80
2017-10-26T00:48:28.159Z,55.20
2017-10-26T00:49:28.161Z,59.00
2017-10-26T00:50:28.154Z,54.50
2017-10-26T00:51:28.155Z,54.90
2017-10-26T00:52:28.151Z,56.70
2017-10-26T00:53:28.149Z,53.50
2017-10-26T00:54:28.148Z,56.00
2017-10-26T00:55:28.145Z,54.30
2017-10-26T00:56:28.141Z,51.50
2017-10-26T00:57:28.138Z,57.20
2017-10-26T00:58:28.139Z,59.90
2017-10-26T00:59:28.129Z,52.60
2017-10-26T01:00:28.128Z,61.50
2017-10-26T01:01:28.124Z,60.90
2017-10-26T01:02:28.121Z,57.70
2017-10-26T01:03:28.123Z,63.80
2017-10-26T01:04:28.120Z,57.40
2017-10-26T01:05:28.115Z,56.40
2017-10-26T01:06:28.113Z,58.90
2017-10-26T01:07:28.107Z,54.00
2017-10-26T01:08:28.108Z,62.80
2017-10-26T01:09:28.101Z,64.90
2017-10-26T01:10:28.099Z,60.90
2017-10-26T01:11:28.097Z,63.30
2017-10-26T01:12:28.093Z,60.50
2017-10-26T01:13:28.091Z,65.70
2017-10-26T01:14:28.088Z,62.40
2017-10-26T01:15:28.088Z,61.50
2017-10-26T01:16:28.086Z,61.80
2017-10-26T01:17:28.084Z,62.60
2017-10-26T01:18:28.082Z,65.40
2017-10-26T01:19:28.079Z,56.60
2017-10-26T01:20:28.074Z,56.40
2017-10-26T01:21:28.072Z,55.40
2017-10-26T01:22:28.070Z,56.50
2017-10-26T01:23:28.064Z,56.60
2017-10-26T01:24:28.061Z,59.50
2017-10-26T01:25:28.057Z,61.00
2017-10-26T01:26:28.054Z,54.20
2017-10-26T01:27:28.052Z,59.90
2017-10-26T01:28:28.049Z,64.10
2017-10-26T01:29:28.047Z,58.90
2017-10-26T01:30:28.045Z,61.00
2017-10-26T01:31:28.044Z,59.80
2017-10-26T01:32:28.041Z,60.50
2017-10-26T01:33:28.041Z,63.80
2017-10-26T01:34:28.040Z,64.20
2017-10-26T01:35:28.035Z,51.90
2017-10-26T01:36:28.038Z,58.60
2017-10-26T01:37:28.029Z,59.80
2017-10-26T01:38:28.027Z,57.40
2017-10-26T01:39:28.019Z,60.00
2017-10-26T01:40:28.016Z,57.30
2017-10-26T01:41:28.017Z,55.50
2017-10-26T01:42:28.010Z,57.60
2017-10-26T01:43:28.010Z,58.50
2017-10-26T01:44:28.006Z,56.90
2017-10-26T01:45:28.003Z,60.70
2017-10-26T01:46:28.004Z,59.60
2017-10-26T01:47:28.002Z,57.70
2017-10-26T01:48:27.998Z,58.20
2017-10-26T01:49:28.001Z,52.00
2017-10-26T01:50:27.992Z,59.60
2017-10-26T01:51:27.991Z,60.80
2017-10-26T01:52:27.987Z,62.30
2017-10-26T01:53:27.985Z,58.70
2017-10-26T01:54:27.983Z,60.20
2017-10-26T01:55:27.975Z,62.80
2017-10-26T01:56:27.971Z,58.80
2017-10-26T01:57:27.970Z,56.50
2017-10-26T01:58:27.966Z,65.60
2017-10-26T01:59:27.965Z,64.90
2017-10-26T02:00:27.961Z,63.10
2017-10-26T02:01:27.958Z,62.70
2017-10-26T02:02:27.955Z,58.60
2017-10-26T02:03:27.959Z,62.40
2017-10-26T02:04:27.959Z,60.10
2017-10-26T02:05:27.951Z,58.10
2017-10-26T02:06:27.949Z,59.30
2017-10-26T02:07:27.943Z,59.90
2017-10-26T02:08:27.940Z,59.60
2017-10-26T02:09:27.935Z,58.10
2017-10-26T02:10:27.934Z,64.80
2017-10-26T02:11:27.937Z,62.70
2017-10-26T02:12:27.940Z,64.30
2017-10-26T02:13:27.932Z,64.00
2017-10-26T02:14:27.927Z,60.60
2017-10-26T02:15:27.924Z,69.60
2017-10-26T02:16:27.922Z,65.50
2017-10-26T02:17:27.918Z,65.70
2017-10-26T02:18:27.917Z,68.20
2017-10-26T02:19:27.910Z,71.30
2017-10-26T02:20:27.906Z,76.60
2017-10-26T02:21:27.904Z,69.60
2017-10-26T02:22:27.901Z,76.30
2017-10-26T02:23:27.904Z,67.80
2017-10-26T02:24:27.894Z,70.90
2017-10-26T02:25:27.892Z,69.10
2017-10-26T02:26:27.889Z,65.00
2017-10-26T02:27:27.891Z,71.90
2017-10-26T02:28:27.890Z,69.10
2017-10-26T02:29:27.886Z,66.40
2017-10-26T02:30:27.882Z,71.00
2017-10-26T02:31:27.880Z,70.30
2017-10-26T02:32:27.876Z,59.50
2017-10-26T02:33:27.873Z,64.40
2017-10-26T02:34:27.873Z,67.20
2017-10-26T02:35:27.864Z,59.20
2017-10-26T02:36:27.860Z,63.30
2017-10-26T02:37:27.857Z,58.50
2017-10-26T02:38:27.857Z,54.90
2017-10-26T02:39:27.853Z,65.10
2017-10-26T02:40:27.848Z,60.20
2017-10-26T02:41:27.852Z,60.40
2017-10-26T02:42:27.844Z,63.20
2017-10-26T02:43:27.845Z,58.80
2017-10-26T02:44:27.842Z,65.70
2017-10-26T02:45:27.839Z,60.00
2017-10-26T02:46:27.837Z,57.40
2017-10-26T02:47:27.834Z,59.70
2017-10-26T02:48:27.831Z,59.00
2017-10-26T02:49:27.828Z,59.10
2017-10-26T02:50:27.825Z,61.60
2017-10-26T02:51:27.817Z,63.10
2017-10-26T02:52:27.819Z,59.80
2017-10-26T02:53:27.812Z,61.10
2017-10-26T02:54:27.810Z,60.80
2017-10-26T02:55:27.822Z,67.20
2017-10-26T02:56:27.807Z,67.50
2017-10-26T02:57:27.806Z,66.60
2017-10-26T02:58:27.799Z,63.90
2017-10-26T02:59:27.810Z,60.50
2017-10-26T03:00:27.798Z,67.30
2017-10-26T03:01:27.795Z,64.20
2017-10-26T03:02:27.792Z,63.00
2017-10-26T03:03:27.788Z,63.30
2017-10-26T03:04:27.786Z,65.60
2017-10-26T03:05:27.782Z,63.80
2017-10-26T03:06:27.779Z,60.60
2017-10-26T03:07:27.774Z,58.40
2017-10-26T03:08:27.770Z,67.70
2017-10-26T03:09:27.774Z,61.50
2017-10-26T03:10:27.764Z,61.70
2017-10-26T03:11:27.765Z,61.70
2017-10-26T03:12:27.763Z,57.00
2017-10-26T03:13:27.759Z,60.40
2017-10-26T03:14:27.758Z,61.80
2017-10-26T03:15:27.753Z,61.60
2017-10-26T03:16:27.746Z,61.40
2017-10-26T03:17:27.743Z,62.30
2017-10-26T03:18:27.742Z,58.40
2017-10-26T03:19:27.738Z,59.40
2017-10-26T03:20:27.736Z,61.70
2017-10-26T03:21:27.733Z,53.60
2017-10-26T03:22:27.730Z,57.40
2017-10-26T03:23:27.732Z,62.70
2017-10-26T03:24:27.728Z,59.90
2017-10-26T03:25:27.727Z,61.00
2017-10-26T03:26:27.724Z,58.60
2017-10-26T03:27:27.723Z,66.70
2017-10-26T03:28:27.717Z,66.10
2017-10-26T03:29:27.714Z,68.50
2017-10-26T03:30:27.715Z,61.30
2017-10-26T03:31:27.705Z,66.10
2017-10-26T03:32:27.705Z,66.60
2017-10-26T03:33:27.699Z,68.30
2017-10-26T03:34:27.697Z,60.80
2017-10-26T03:35:27.705Z,62.10
2017-10-26T03:36:27.690Z,61.10
2017-10-26T03:37:27.691Z,65.30
2017-10-26T03:38:27.684Z,60.40
2017-10-26T03:39:27.686Z,67.90
2017-10-26T03:40:27.684Z,60.90
2017-10-26T03:41:27.684Z,61.50
2017-10-26T03:42:27.679Z,62.70
2017-10-26T03:43:27.676Z,55.40
2017-10-26T03:44:27.677Z,58.30
2017-10-26T03:45:27.672Z,61.80
2017-10-26T03:46:27.667Z,58.00
2017-10-26T03:47:27.660Z,53.80
2017-10-26T03:48:27.657Z,54.60
2017-10-26T03:49:27.654Z,49.50
2017-10-26T03:50:27.654Z,58.10
2017-10-26T03:51:27.649Z,56.80
2017-10-26T03:52:27.646Z,56.00
2017-10-26T03:53:27.645Z,51.80
2017-10-26T03:54:27.641Z,53.40
2017-10-26T03:55:27.642Z,55.80
2017-10-26T03:56:27.641Z,55.00
2017-10-26T03:57:27.636Z,53.20
2017-10-26T03:58:27.637Z,56.00
2017-10-26T03:59:27.632Z,55.10
2017-10-26T04:00:27.628Z,52.50
2017-10-26T04:01:27.627Z,53.30
2017-10-26T04:02:27.623Z,57.90
2017-10-26T04:03:27.616Z,56.30
2017-10-26T04:04:27.613Z,52.10
2017-10-26T04:05:27.612Z,55.10
2017-10-26T04:06:27.609Z,55.60
2017-10-26T04:07:27.605Z,56.60
2017-10-26T04:08:27.603Z,57.10
2017-10-26T04:09:27.600Z,49.70
2017-10-26T04:10:27.598Z,51.60
2017-10-26T04:11:27.599Z,57.20
2017-10-26T04:12:27.597Z,58.50
2017-10-26T04:13:27.593Z,63.50
2017-10-26T04:14:27.591Z,56.20
2017-10-26T04:15:27.584Z,56.90
2017-10-26T04:16:27.581Z,53.60
2017-10-26T04:17:27.578Z,61.20
2017-10-26T04:18:27.575Z,57.80
2017-10-26T04:19:27.577Z,55.20
2017-10-26T04:20:27.573Z,51.00
2017-10-26T04:21:27.571Z,54.80
2017-10-26T04:22:27.568Z,51.10
2017-10-26T04:23:27.566Z,48.10
2017-10-26T04:24:27.562Z,50.60
2017-10-26T04:25:27.563Z,55.90
2017-10-26T04:26:27.562Z,49.50
2017-10-26T04:27:27.551Z,51.30
2017-10-26T04:28:27.547Z,52.40
2017-10-26T04:29:27.545Z,52.00
2017-10-26T04:30:27.542Z,47.90
2017-10-26T04:31:27.543Z,49.10
2017-10-26T04:32:27.536Z,51.60
2017-10-26T04:33:27.532Z,52.40
2017-10-26T04:34:27.532Z,50.30
2017-10-26T04:35:27.533Z,45.40
2017-10-26T04:36:27.529Z,47.60
2017-10-26T04:37:27.526Z,48.50
2017-10-26T04:38:27.525Z,52.50
2017-10-26T04:39:27.522Z,46.50
2017-10-26T04:40:27.526Z,53.70
2017-10-26T04:41:27.517Z,53.20
2017-10-26T04:42:27.514Z,49.20
2017-10-26T04:43:27.507Z,48.50
2017-10-26T04:44:27.506Z,50.30
2017-10-26T04:45:27.501Z,52.10
2017-10-26T04:46:27.500Z,51.80
2017-10-26T04:47:27.497Z,51.10
2017-10-26T04:48:27.494Z,48.90
2017-10-26T04:49:27.492Z,49.40
2017-10-26T04:50:27.489Z,49.70
2017-10-26T04:51:27.490Z,49.40
2017-10-26T04:52:27.486Z,46.60
2017-10-26T04:53:27.485Z,50.90
2017-10-26T04:54:27.483Z,50.10
2017-10-26T04:55:27.480Z,48.40
2017-10-26T04:56:27.480Z,49.00
2017-10-26T04:57:27.473Z,47.10
2017-10-26T04:58:27.479Z,50.90
2017-10-26T04:59:27.468Z,52.10
2017-10-26T05:00:27.462Z,51.10
2017-10-26T05:01:27.460Z,53.70
2017-10-26T05:02:27.457Z,56.20
2017-10-26T05:03:27.456Z,52.10
2017-10-26T05:04:27.452Z,47.90
2017-10-26T05:05:27.451Z,53.10
2017-10-26T05:06:27.457Z,50.00
2017-10-26T05:07:27.450Z,47.60
2017-10-26T05:08:27.451Z,48.50
2017-10-26T05:09:27.446Z,51.20
2017-10-26T05:10:27.440Z,44.00
2017-10-26T05:11:27.439Z,50.70
2017-10-26T05:12:27.437Z,49.70
2017-10-26T05:13:27.434Z,52.60
2017-10-26T05:14:27.431Z,54.50
2017-10-26T05:15:27.425Z,55.80
2017-10-26T05:16:27.421Z,50.50
2017-10-26T05:17:27.420Z,50.50
2017-10-26T05:18:27.423Z,57.20
2017-10-26T05:19:27.418Z,53.90
2017-10-26T05:20:27.416Z,60.90
2017-10-26T05:21:27.420Z,51.40
2017-10-26T05:22:27.415Z,51.90
2017-10-26T05:23:27.405Z,52.80
2017-10-26T05:24:27.402Z,58.30
2017-10-26T05:25:27.399Z,58.50
2017-10-26T05:26:27.396Z,49.80
2017-10-26T05:27:27.393Z,51.00
2017-10-26T05:28:27.392Z,58.20
2017-10-26T05:29:27.388Z,52.50
2017-10-26T05:30:27.387Z,61.30
2017-10-26T05:31:27.389Z,54.60
2017-10-26T05:32:27.387Z,57.10
2017-10-26T05:33:27.383Z,63.70
2017-10-26T05:34:27.384Z,63.40
2017-10-26T05:35:27.379Z,65.90
2017-10-26T05:36:27.374Z,64.20
2017-10-26T05:37:27.373Z,71.30
2017-10-26T05:38:27.369Z,71.90
2017-10-26T05:39:27.362Z,67.80
2017-10-26T05:40:27.361Z,72.00
2017-10-26T05:41:27.358Z,69.20
2017-10-26T05:42:27.355Z,70.60
2017-10-26T05:43:27.353Z,71.30
2017-10-26T05:44:27.349Z,69.80
2017-10-26T05:45:27.348Z,72.70
2017-10-26T05:46:27.345Z,67.00
2017-10-26T05:47:27.345Z,68.30
2017-10-26T05:48:27.343Z,66.90
2017-10-26T05:49:27.341Z,64.70
2017-10-26T05:50:27.338Z,63.40
2017-10-26T05:51:27.335Z,62.20
2017-10-26T05:52:27.331Z,68.10
2017-10-26T05:53:27.329Z,64.30
2017-10-26T05:54:27.326Z,62.90
2017-10-26T05:55:27.323Z,63.60
2017-10-26T05:56:27.316Z,56.80
2017-10-26T05:57:27.314Z,63.00
2017-10-26T05:58:27.312Z,57.70
2017-10-26T05:59:27.310Z,64.30
2017-10-26T06:00:27.305Z,61.00
2017-10-26T06:01:27.305Z,52.20
2017-10-26T06:02:27.301Z,55.90
2017-10-26T06:03:27.302Z,53.10
2017-10-26T06:04:27.299Z,56.90
2017-10-26T06:05:27.296Z,56.90
2017-10-26T06:06:27.294Z,60.70
2017-10-26T06:07:27.291Z,57.90
2017-10-26T06:08:27.291Z,57.50
2017-10-26T06:09:27.284Z,54.10
2017-10-26T06:10:27.284Z,59.20
2017-10-26T06:11:27.277Z,61.10
2017-10-26T06:12:27.272Z,55.70
2017-10-26T06:13:27.270Z,56.60
2017-10-26T06:14:27.269Z,56.90
2017-10-26T06:15:27.266Z,59.40
2017-10-26T06:16:27.263Z,57.80
2017-10-26T06:17:27.260Z,54.50
2017-10-26T06:18:27.257Z,56.10
2017-10-26T06:19:27.259Z,48.30
2017-10-26T06:20:27.256Z,53.20
2017-10-26T06:21:27.253Z,57.60
2017-10-26T06:22:27.251Z,60.70
2017-10-26T06:23:27.244Z,65.60
2017-10-26T06:24:27.240Z,56.80
2017-10-26T06:25:27.240Z,58.00
2017-10-26T06:26:27.235Z,56.80
2017-10-26T06:27:27.237Z,55.80
2017-10-26T06:28:27.234Z,52.50
2017-10-26T06:29:27.231Z,51.60
2017-10-26T06:30:27.236Z,50.20
2017-10-26T06:31:27.228Z,52.30
2017-10-26T06:32:27.223Z,52.20
2017-10-26T06:33:27.223Z,49.20
2017-10-26T06:34:27.218Z,54.00
2017-10-26T06:35:27.212Z,49.80
2017-10-26T06:36:27.208Z,47.90
2017-10-26T06:37:27.207Z,50.00
2017-10-26T06:38:27.208Z,51.80
2017-10-26T06:39:27.203Z,52.30
2017-10-26T06:40:27.202Z,55.20
2017-10-26T06:41:27.197Z,49.10
2017-10-26T06:42:27.194Z,47.70
2017-10-26T06:43:27.198Z,55.80
2017-10-26T06:44:27.194Z,51.80
2017-10-26T06:45:27.191Z,46.60
2017-10-26T06:46:27.188Z,49.30
2017-10-26T06:47:27.187Z,51.60
2017-10-26T06:48:27.184Z,53.10
2017-10-26T06:49:27.180Z,53.70
2017-10-26T06:50:27.179Z,50.70
2017-10-26T06:51:27.174Z,48.70
2017-10-26T06:52:27.169Z,49.40
2017-10-26T06:53:27.167Z,49.80
2017-10-26T06:54:27.164Z,51.40
2017-10-26T06:55:27.162Z,45.40
2017-10-26T06:56:27.158Z,52.10
2017-10-26T06:57:27.158Z,49.50
2017-10-26T06:58:27.157Z,46.80
2017-10-26T06:59:27.156Z,45.30
2017-10-26T07:00:27.154Z,49.60
2017-10-26T07:01:27.151Z,51.90
2017-10-26T07:02:27.149Z,47.50
2017-10-26T07:03:27.150Z,48.70
2017-10-26T07:04:27.145Z,47.40
2017-10-26T07:05:27.142Z,46.50
2017-10-26T07:06:27.139Z,47.30
2017-10-26T07:07:27.134Z,50.10
2017-10-26T07:08:27.129Z,48.00
2017-10-26T07:09:27.127Z,51.80
2017-10-26T07:10:27.125Z,47.80
2017-10-26T07:11:27.123Z,49.00
2017-10-26T07:12:27.120Z,46.10
2017-10-26T07:13:27.117Z,47.20
2017-10-26T07:14:27.116Z,48.50
2017-10-26T07:15:27.117Z,47.60
2017-10-26T07:16:27.114Z,49.00
2017-10-26T07:17:27.111Z,45.60
2017-10-26T07:18:27.110Z,44.20
2017-10-26T07:19:27.109Z,47.90
2017-10-26T07:20:27.104Z,48.00
2017-10-26T07:21:27.103Z,42.00
2017-10-26T07:22:27.100Z,45.80
2017-10-26T07:23:27.093Z,51.50
2017-10-26T07:24:27.092Z,47.10
2017-10-26T07:25:27.090Z,43.10
2017-10-26T07:26:27.086Z,45.10
2017-10-26T07:27:27.090Z,45.60
2017-10-26T07:28:27.086Z,44.70
2017-10-26T07:29:27.085Z,43.90
2017-10-26T07:30:27.082Z,46.70
2017-10-26T07:31:27.077Z,42.80
2017-10-26T07:32:27.073Z,47.90
2017-10-26T07:33:27.072Z,43.00
2017-10-26T07:34:27.070Z,42.10
2017-10-26T07:35:27.067Z,43.30
2017-10-26T07:36:27.065Z,37.90
2017-10-26T07:37:27.064Z,48.70
2017-10-26T07:38:27.062Z,45.10
2017-10-26T07:39:27.062Z,48.20
2017-10-26T07:40:27.061Z,48.10
2017-10-26T07:41:27.058Z,41.60
2017-10-26T07:42:27.059Z,41.50
2017-10-26T07:43:27.054Z,46.30
2017-10-26T07:44:27.052Z,44.00
2017-10-26T07:45:27.049Z,45.40
2017-10-26T07:46:27.049Z,41.90
2017-10-26T07:47:27.047Z,40.50
2017-10-26T07:48:27.040Z,44.90
2017-10-26T07:49:27.041Z,42.00
2017-10-26T07:50:27.037Z,42.60
2017-10-26T07:51:27.034Z,47.20
2017-10-26T07:52:27.032Z,45.10
2017-10-26T07:53:27.030Z,43.40
2017-10-26T07:54:27.031Z,45.70
2017-10-26T07:55:27.031Z,42.50
2017-10-26T07:56:27.029Z,42.30
2017-10-26T07:57:27.028Z,47.00
2017-10-26T07:58:27.025Z,48.60
2017-10-26T07:59:27.024Z,42.70
2017-10-26T08:00:27.021Z,50.70
2017-10-26T08:01:27.021Z,44.80
2017-10-26T08:02:27.018Z,42.50
2017-10-26T08:03:27.012Z,40.20
2017-10-26T08:04:27.011Z,40.30
2017-10-26T08:05:27.009Z,35.50
2017-10-26T08:06:27.006Z,36.60
2017-10-26T08:07:27.006Z,36.10
2017-10-26T08:08:27.004Z,36.00
2017-10-26T08:09:27.002Z,38.30
2017-10-26T08:10:27.002Z,36.30
2017-10-26T08:11:27.005Z,36.80
2017-10-26T08:12:27.002Z,35.60
2017-10-26T08:13:27.001Z,35.50
2017-10-26T08:14:27.017Z,40.00
2017-10-26T08:15:26.999Z,35.80
2017-10-26T08:16:26.998Z,34.40
2017-10-26T08:17:26.998Z,35.50
2017-10-26T08:18:26.997Z,32.90
2017-10-26T08:19:26.991Z,35.10
2017-10-26T08:20:26.990Z,32.40
2017-10-26T08:21:26.989Z,32.70
2017-10-26T08:22:26.987Z,30.20
2017-10-26T08:23:26.987Z,35.60
2017-10-26T08:24:26.985Z,33.80
2017-10-26T08:25:26.985Z,30.00
2017-10-26T08:26:26.984Z,29.80
2017-10-26T08:27:26.987Z,31.00
2017-10-26T08:28:26.987Z,27.20
2017-10-26T08:29:26.985Z,32.10
2017-10-26T08:30:26.984Z,30.00
2017-10-26T08:31:26.984Z,27.00
2017-10-26T08:32:26.982Z,31.80
2017-10-26T08:33:27.217Z,27.50
2017-10-26T08:34:26.982Z,26.90
2017-10-26T08:35:26.977Z,28.40
2017-10-26T08:36:26.975Z,29.60
2017-10-26T08:37:26.974Z,29.10
2017-10-26T08:38:26.973Z,29.30
2017-10-26T08:39:26.973Z,30.70
2017-10-26T08:40:26.972Z,29.80
2017-10-26T08:41:26.970Z,28.90
2017-10-26T08:42:26.971Z,25.70
2017-10-26T08:43:26.974Z,23.70
2017-10-26T08:44:26.979Z,25.90
2017-10-26T08:45:26.973Z,22.30
2017-10-26T08:46:26.971Z,24.00
2017-10-26T08:47:26.972Z,21.30
2017-10-26T08:48:26.969Z,20.50
2017-10-26T08:49:26.970Z,19.80
2017-10-26T08:50:26.971Z,17.30
2017-10-26T08:51:26.967Z,17.80
2017-10-26T08:52:26.965Z,22.20
2017-10-26T08:53:26.965Z,20.10
2017-10-26T08:54:26.965Z,17.50
2017-10-26T08:55:26.966Z,18.30
2017-10-26T08:56:26.966Z,16.90
2017-10-26T08:57:26.967Z,21.30
2017-10-26T08:58:26.972Z,16.50
2017-10-26T08:59:26.971Z,17.90
2017-10-26T09:00:26.972Z,18.70
2017-10-26T09:01:26.974Z,17.40
2017-10-26T09:02:26.976Z,19.50
2017-10-26T09:03:26.976Z,19.20
2017-10-26T09:04:26.975Z,15.60
2017-10-26T09:05:26.976Z,18.00
2017-10-26T09:06:26.977Z,20.70
2017-10-26T09:07:26.977Z,18.60
2017-10-26T09:08:26.989Z,20.00
2017-10-26T09:09:26.976Z,17.50
2017-10-26T09:10:26.977Z,17.30
2017-10-26T09:11:26.979Z,19.60
2017-10-26T09:12:26.980Z,18.80
2017-10-26T09:13:26.980Z,16.20
2017-10-26T09:14:26.982Z,17.90
2017-10-26T09:15:26.987Z,18.40
2017-10-26T09:16:26.988Z,16.40
2017-10-26T09:17:26.989Z,15.60
2017-10-26T09:18:26.994Z,14.00
2017-10-26T09:19:26.995Z,17.90
2017-10-26T09:20:26.993Z,17.70
2017-10-26T09:21:26.994Z,16.80
2017-10-26T09:22:26.996Z,15.90
2017-10-26T09:23:26.993Z,15.00
2017-10-26T09:24:26.997Z,20.90
2017-10-26T09:25:26.995Z,22.20
2017-10-26T09:26:26.997Z,19.90
2017-10-26T09:27:26.997Z,20.80
2017-10-26T09:28:27.002Z,16.10
2017-10-26T09:29:27.000Z,17.70
2017-10-26T09:30:27.000Z,17.30
2017-10-26T09:31:27.009Z,16.30
2017-10-26T09:32:27.008Z,18.50
2017-10-26T09:33:27.026Z,17.40
2017-10-26T09:34:27.015Z,19.50
2017-10-26T09:35:27.010Z,17.30
2017-10-26T09:36:27.010Z,17.50
2017-10-26T09:37:27.012Z,16.80
2017-10-26T09:38:27.013Z,14.30
2017-10-26T09:39:27.020Z,17.20
2017-10-26T09:40:27.021Z,16.10
2017-10-26T09:41:27.021Z,17.50
2017-10-26T09:42:27.023Z,17.60
2017-10-26T09:43:27.026Z,18.80
2017-10-26T09:44:27.026Z,18.70
2017-10-26T09:45:27.029Z,19.20
2017-10-26T09:46:27.041Z,18.70
2017-10-26T09:47:27.026Z,18.30
2017-10-26T09:48:27.030Z,29.90
2017-10-26T09:49:27.030Z,19.30
2017-10-26T09:50:27.032Z,18.00
2017-10-26T09:51:27.032Z,19.10
2017-10-26T09:52:27.032Z,16.70
2017-10-26T09:53:27.035Z,17.30
2017-10-26T09:54:27.047Z,17.50
2017-10-26T09:55:27.042Z,20.00
2017-10-26T09:56:27.041Z,20.50
2017-10-26T09:57:27.043Z,21.30
2017-10-26T09:58:27.043Z,22.70
2017-10-26T09:59:27.046Z,22.30
2017-10-26T10:00:27.045Z,19.90
2017-10-26T10:01:27.047Z,18.70
2017-10-26T10:02:27.049Z,18.90
2017-10-26T10:03:27.046Z,20.90
2017-10-26T10:04:27.045Z,17.50
2017-10-26T10:05:27.047Z,17.80
2017-10-26T10:06:27.048Z,17.50
2017-10-26T10:07:27.048Z,20.30
2017-10-26T10:08:27.049Z,18.60
2017-10-26T10:09:27.054Z,19.40
2017-10-26T10:10:27.053Z,16.50
2017-10-26T10:11:27.057Z,22.30
2017-10-26T10:12:27.058Z,17.50
2017-10-26T10:13:27.059Z,18.20
2017-10-26T10:14:27.064Z,14.90
2017-10-26T10:15:27.062Z,15.50
2017-10-26T10:16:27.062Z,19.20
2017-10-26T10:17:27.062Z,15.00
2017-10-26T10:18:27.065Z,21.20
2017-10-26T10:19:27.069Z,17.30
2017-10-26T10:20:27.062Z,19.20
2017-10-26T10:21:27.063Z,17.10
2017-10-26T10:22:27.065Z,15.30
2017-10-26T10:23:27.066Z,17.60
2017-10-26T10:24:27.067Z,16.40
2017-10-26T10:25:27.069Z,14.50
2017-10-26T10:26:27.070Z,15.60
2017-10-26T10:27:27.076Z,15.00
2017-10-26T10:28:27.077Z,15.00
2017-10-26T10:29:27.079Z,14.10
2017-10-26T10:30:27.082Z,13.20
2017-10-26T10:31:27.083Z,14.00
2017-10-26T10:32:27.083Z,18.80
2017-10-26T10:33:27.085Z,13.20
2017-10-26T10:34:27.087Z,14.60
2017-10-26T10:35:27.086Z,11.40
2017-10-26T10:36:27.086Z,15.30
2017-10-26T10:37:27.088Z,17.50
2017-10-26T10:38:27.089Z,14.50
2017-10-26T10:39:27.098Z,12.10
2017-10-26T10:40:27.100Z,13.60
2017-10-26T10:41:27.101Z,15.90
2017-10-26T10:42:27.103Z,15.10
2017-10-26T10:43:27.103Z,14.40
2017-10-26T10:44:27.104Z,12.20
2017-10-26T10:45:27.106Z,12.70
2017-10-26T10:46:27.109Z,16.60
2017-10-26T10:47:27.111Z,14.10
2017-10-26T10:48:27.113Z,14.20
2017-10-26T10:49:27.114Z,14.90
2017-10-26T10:50:27.118Z,14.60
2017-10-26T10:51:27.124Z,15.20
2017-10-26T10:52:27.126Z,13.80
2017-10-26T10:53:27.128Z,13.70
2017-10-26T10:54:27.129Z,12.90
2017-10-26T10:55:27.134Z,14.70
2017-10-26T10:56:27.134Z,17.00
2017-10-26T10:57:27.137Z,12.90
2017-10-26T10:58:27.138Z,15.10
2017-10-26T10:59:27.137Z,15.70
2017-10-26T11:00:27.139Z,14.70
2017-10-26T11:01:27.140Z,13.20
2017-10-26T11:02:27.144Z,12.50
2017-10-26T11:03:27.146Z,10.40
2017-10-26T11:04:27.149Z,16.00
2017-10-26T11:05:27.150Z,12.80
2017-10-26T11:06:27.151Z,11.90
2017-10-26T11:07:27.159Z,12.80
2017-10-26T11:08:27.161Z,10.70
2017-10-26T11:09:27.163Z,13.00
2017-10-26T11:10:27.170Z,9.70
2017-10-26T11:11:27.171Z,9.80
2017-10-26T11:12:27.171Z,10.80
2017-10-26T11:13:27.178Z,9.00
2017-10-26T11:14:27.179Z,9.70
2017-10-26T11:15:27.177Z,10.50
2017-10-26T11:16:27.180Z,10.50
2017-10-26T11:17:27.183Z,8.30
2017-10-26T11:18:27.187Z,10.10
2017-10-26T11:19:27.191Z,11.20
2017-10-26T11:20:27.193Z,8.40
2017-10-26T11:21:27.198Z,12.70
2017-10-26T11:22:27.200Z,12.30
2017-10-26T11:23:27.207Z,10.70
2017-10-26T11:24:27.210Z,8.00
2017-10-26T11:25:27.214Z,8.60
2017-10-26T11:26:27.215Z,9.80
2017-10-26T11:27:27.219Z,7.80
2017-10-26T11:28:27.222Z,8.30
2017-10-26T11:29:27.225Z,7.00
2017-10-26T11:30:27.229Z,10.50
2017-10-26T11:31:27.226Z,7.20
2017-10-26T11:32:27.233Z,7.90
2017-10-26T11:33:27.232Z,9.50
2017-10-26T11:34:27.240Z,8.80
2017-10-26T11:35:27.238Z,11.60
2017-10-26T11:36:27.239Z,9.00
2017-10-26T11:37:27.243Z,9.80
2017-10-26T11:38:27.244Z,11.30
2017-10-26T11:39:27.254Z,11.90
2017-10-26T11:40:27.255Z,8.90
2017-10-26T11:41:27.259Z,8.90
2017-10-26T11:42:27.259Z,9.80
2017-10-26T11:43:27.258Z,6.50
2017-10-26T11:44:27.260Z,7.50
2017-10-26T11:45:27.265Z,8.60
2017-10-26T11:46:27.270Z,10.00
2017-10-26T11:47:27.273Z,10.70
2017-10-26T11:48:27.273Z,10.50
2017-10-26T11:49:27.275Z,8.10
2017-10-26T11:50:27.278Z,10.20
2017-10-26T11:51:27.280Z,10.10
2017-10-26T11:52:27.283Z,10.00
2017-10-26T11:53:27.283Z,11.70
2017-10-26T11:54:27.286Z,11.00
2017-10-26T11:55:27.284Z,11.10
2017-10-26T11:56:27.291Z,10.20
2017-10-26T11:57:27.288Z,9.90
2017-10-26T11:58:27.289Z,10.30
2017-10-26T11:59:27.292Z,9.10
2017-10-26T12:00:27.293Z,10.40
2017-10-26T12:01:27.293Z,9.00
2017-10-26T12:02:27.309Z,9.30
2017-10-26T12:03:27.304Z,7.80
2017-10-26T12:04:27.305Z,11.00
2017-10-26T12:05:27.304Z,8.70
2017-10-26T12:06:27.305Z,6.70
2017-10-26T12:07:27.308Z,8.20
2017-10-26T12:08:27.310Z,9.80
2017-10-26T12:09:27.310Z,11.80
2017-10-26T12:10:27.313Z,7.90
2017-10-26T12:11:27.310Z,8.10
2017-10-26T12:12:27.312Z,9.80
2017-10-26T12:13:27.313Z,8.20
2017-10-26T12:14:27.315Z,11.10
2017-10-26T12:15:27.317Z,9.70
2017-10-26T12:16:27.318Z,11.20
2017-10-26T12:17:27.322Z,9.50
2017-10-26T12:18:27.321Z,11.00
2017-10-26T12:19:27.328Z,12.40
2017-10-26T12:20:27.330Z,10.40
2017-10-26T12:21:27.332Z,9.80
2017-10-26T12:22:27.333Z,9.00
2017-10-26T12:23:27.336Z,10.10
2017-10-26T12:24:27.338Z,9.00
2017-10-26T12:25:27.340Z,11.70
2017-10-26T12:26:27.342Z,9.00
2017-10-26T12:27:27.341Z,7.90
2017-10-26T12:28:27.342Z,7.10
2017-10-26T12:29:27.343Z,7.10
2017-10-26T12:30:27.347Z,8.30
2017-10-26T12:31:27.348Z,6.70
2017-10-26T12:32:27.350Z,7.90
2017-10-26T12:33:27.352Z,9.40
2017-10-26T12:34:27.355Z,6.80
2017-10-26T12:35:27.360Z,8.00
2017-10-26T12:36:27.382Z,6.50
2017-10-26T12:37:27.366Z,5.10
2017-10-26T12:38:27.367Z,5.80
2017-10-26T12:39:27.375Z,8.20
2017-10-26T12:40:27.383Z,5.80
2017-10-26T12:41:27.379Z,6.40
2017-10-26T12:42:27.379Z,5.00
2017-10-26T12:43:27.378Z,8.00
2017-10-26T12:44:27.378Z,5.10
2017-10-26T12:45:27.380Z,7.20
2017-10-26T12:46:27.383Z,6.10
2017-10-26T12:47:27.390Z,6.20
2017-10-26T12:48:27.393Z,5.00
2017-10-26T12:49:27.392Z,6.50
2017-10-26T12:50:27.396Z,8.40
2017-10-26T12:51:27.394Z,5.60
2017-10-26T12:52:27.394Z,6.00
2017-10-26T12:53:27.399Z,6.10
2017-10-26T12:54:27.401Z,6.20
2017-10-26T12:55:27.402Z,4.50